Time;durP1;ratioP1;P1;durP2;ratioP2;P2;SDS_P1;SDS_P2;PMS_P1;PMS_P2;Temp;Humidity;BMP_temperature;BMP_pressure;BME280_temperature;BME280_humidity;BME280_pressure;Samples;Min_cycle;Max_cycle;Signal;HPM_P1;HPM_P2
2023/08/23 00:00:16;;;;;;;5.63;2.63;;;;;;;;;;5049580;28;20035;-84
2023/08/23 00:02:42;;;;;;;6.75;2.90;;;;;;;;;;5054267;28;20040;-84
2023/08/23 00:05:08;;;;;;;4.80;2.28;;;;;;;;;;5051624;28;20025;-86
2023/08/23 00:07:36;;;;;;;6.72;2.60;;;;;;;;;;5021276;28;20033;-85
2023/08/23 00:10:02;;;;;;;6.60;2.85;;;;;;;;;;5039922;28;20025;-86
2023/08/23 00:12:27;;;;;;;6.43;2.80;;;;;;;;;;5038547;28;20445;-83
2023/08/23 00:14:53;;;;;;;9.38;2.60;;;;;;;;;;5039975;28;20388;-81
2023/08/23 00:17:19;;;;;;;6.93;2.90;;;;;;;;;;5019197;28;20033;-81
2023/08/23 00:19:46;;;;;;;7.35;3.00;;;;;;;;;;5037115;28;20545;-83
2023/08/23 00:22:11;;;;;;;7.30;2.80;;;;;;;;;;5057829;28;20025;-81
2023/08/23 00:24:37;;;;;;;7.28;3.05;;;;;;;;;;5037765;28;20041;-82
2023/08/23 00:27:03;;;;;;;6.50;3.03;;;;;;;;;;5052062;28;20080;-81
2023/08/23 00:29:28;;;;;;;10.90;2.72;;;;;;;;;;5042837;28;20416;-81
2023/08/23 00:31:54;;;;;;;9.13;3.30;;;;;;;;;;5050744;28;20484;-83
2023/08/23 00:34:20;;;;;;;8.57;2.92;;;;;;;;;;5054693;28;20443;-84
2023/08/23 00:36:46;;;;;;;5.60;2.95;;;;;;;;;;5036221;28;20495;-82
2023/08/23 00:39:12;;;;;;;6.28;2.92;;;;;;;;;;5029302;28;20392;-81
2023/08/23 00:41:38;;;;;;;7.05;2.70;;;;;;;;;;5039598;28;20032;-83
2023/08/23 00:44:03;;;;;;;9.57;2.70;;;;;;;;;;5040462;28;20112;-84
2023/08/23 00:46:29;;;;;;;6.18;2.90;;;;;;;;;;5045472;28;20033;-82
2023/08/23 00:48:56;;;;;;;8.25;3.17;;;;;;;;;;5039174;28;20039;-83
2023/08/23 00:51:22;;;;;;;6.72;3.10;;;;;;;;;;5007528;28;20120;-82
2023/08/23 00:53:48;;;;;;;6.97;3.15;;;;;;;;;;5020072;28;20087;-82
2023/08/23 00:56:13;;;;;;;9.38;2.83;;;;;;;;;;5040207;28;20423;-83
2023/08/23 00:58:39;;;;;;;7.20;3.15;;;;;;;;;;5056346;28;20407;-81
2023/08/23 01:01:08;;;;;;;7.25;2.90;;;;;;;;;;5041601;28;20025;-83
2023/08/23 01:03:33;;;;;;;7.40;2.72;;;;;;;;;;5057369;28;20568;-83
2023/08/23 01:05:59;;;;;;;7.15;2.70;;;;;;;;;;5040240;28;20582;-82
2023/08/23 01:08:29;;;;;;;6.05;2.75;;;;;;;;;;5055212;28;20506;-82
2023/08/23 01:10:58;;;;;;;7.63;2.97;;;;;;;;;;5051491;28;20036;-82
2023/08/23 01:13:36;;;;;;;6.65;3.10;;;;;;;;;;5038892;28;20036;-83
2023/08/23 01:16:02;;;;;;;7.55;2.97;;;;;;;;;;5055698;28;20032;-82
2023/08/23 01:18:28;;;;;;;7.50;2.90;;;;;;;;;;5038386;28;20124;-83
2023/08/23 01:20:55;;;;;;;8.00;3.15;;;;;;;;;;5041117;28;20024;-81
2023/08/23 01:23:22;;;;;;;6.50;3.15;;;;;;;;;;5058755;28;20064;-81
2023/08/23 01:25:47;;;;;;;5.95;2.83;;;;;;;;;;5025530;28;20033;-81
2023/08/23 01:31:04;;;;;;;10.38;3.00;;;;;;;;;;5082966;23;20271;-80
2023/08/23 01:33:30;;;;;;;;;;;;;;;;;;4928995;29;20047;-81
2023/08/23 01:35:59;;;;;;;5.55;3.05;;;;;;;;;;4970620;29;19917;-81
2023/08/23 01:38:26;;;;;;;5.75;2.95;;;;;;;;;;4952702;29;20043;-80
2023/08/23 01:40:56;;;;;;;11.55;3.70;;;;;;;;;;4934592;29;20043;-81
2023/08/23 01:43:22;;;;;;;9.15;3.38;;;;;;;;;;4917702;29;20127;-81
2023/08/23 01:45:49;;;;;;;6.53;2.83;;;;;;;;;;4921652;29;20108;-81
2023/08/23 01:48:16;;;;;;;9.23;3.13;;;;;;;;;;4928988;29;20096;-81
2023/08/23 01:50:43;;;;;;;10.32;3.05;;;;;;;;;;4962376;29;20148;-81
2023/08/23 01:53:09;;;;;;;4.95;2.38;;;;;;;;;;4932441;29;20059;-81
2023/08/23 01:55:40;;;;;;;8.75;2.85;;;;;;;;;;4962006;29;20464;-81
2023/08/23 01:58:08;;;;;;;7.00;2.53;;;;;;;;;;4947604;29;20042;-81
2023/08/23 02:00:34;;;;;;;7.82;2.42;;;;;;;;;;4947334;29;20360;-81
2023/08/23 02:03:01;;;;;;;9.27;3.00;;;;;;;;;;4950285;29;20624;-82
2023/08/23 02:05:30;;;;;;;7.03;2.35;;;;;;;;;;4924712;29;20407;-82
2023/08/23 02:07:58;;;;;;;7.45;2.50;;;;;;;;;;4942294;29;20070;-82
2023/08/23 02:10:26;;;;;;;7.72;2.60;;;;;;;;;;4927066;29;20035;-82
2023/08/23 02:12:51;;;;;;;6.68;2.85;;;;;;;;;;4934438;29;20036;-82
2023/08/23 02:15:17;;;;;;;6.90;2.50;;;;;;;;;;4929547;29;20107;-82
2023/08/23 02:17:43;;;;;;;6.57;3.00;;;;;;;;;;4933660;29;20043;-82
2023/08/23 02:20:09;;;;;;;8.82;2.63;;;;;;;;;;4935297;29;20035;-81
2023/08/23 02:22:41;;;;;;;10.07;3.40;;;;;;;;;;4950349;29;20095;-82
2023/08/23 02:25:07;;;;;;;6.53;2.42;;;;;;;;;;4933674;29;20054;-82
2023/08/23 02:27:33;;;;;;;9.73;3.15;;;;;;;;;;4946943;29;20039;-82
2023/08/23 02:30:00;;;;;;;13.20;3.25;;;;;;;;;;4965793;29;20039;-81
2023/08/23 02:32:27;;;;;;;6.30;3.05;;;;;;;;;;4950602;29;20031;-82
2023/08/23 02:34:53;;;;;;;12.73;2.47;;;;;;;;;;4973182;28;20063;-81
2023/08/23 02:37:19;;;;;;;9.13;2.60;;;;;;;;;;4960393;28;20067;-81
2023/08/23 02:39:44;;;;;;;8.88;2.80;;;;;;;;;;4944444;29;20023;-81
2023/08/23 02:42:11;;;;;;;10.95;2.50;;;;;;;;;;4960728;28;20043;-81
2023/08/23 02:44:38;;;;;;;9.77;2.83;;;;;;;;;;4961237;28;20857;-81
2023/08/23 02:47:03;;;;;;;12.43;3.50;;;;;;;;;;4957769;28;20094;-81
2023/08/23 02:49:30;;;;;;;7.78;2.53;;;;;;;;;;4967963;29;20044;-81
2023/08/23 02:51:55;;;;;;;10.55;2.63;;;;;;;;;;4951071;29;20601;-81
2023/08/23 02:54:22;;;;;;;11.65;3.05;;;;;;;;;;4951736;29;20035;-81
2023/08/23 02:56:49;;;;;;;16.77;9.03;;;;;;;;;;4949279;29;20035;-82
2023/08/23 02:59:16;;;;;;;12.60;4.15;;;;;;;;;;4947635;29;20035;-80
2023/08/23 03:01:41;;;;;;;6.22;3.22;;;;;;;;;;4947710;29;20039;-81
2023/08/23 03:04:08;;;;;;;7.22;2.90;;;;;;;;;;4960375;29;20035;-82
2023/08/23 03:06:34;;;;;;;10.35;3.17;;;;;;;;;;4958895;29;20027;-81
2023/08/23 03:09:00;;;;;;;9.75;2.75;;;;;;;;;;4946740;29;20043;-81
2023/08/23 03:11:26;;;;;;;5.28;2.65;;;;;;;;;;4944701;29;20031;-81
2023/08/23 03:13:52;;;;;;;10.63;2.65;;;;;;;;;;4947144;29;20087;-81
2023/08/23 03:16:20;;;;;;;;;;;;;;;;;;4949934;29;20094;-80
2023/08/23 03:18:46;;;;;;;10.95;2.97;;;;;;;;;;4950790;29;19989;-81
2023/08/23 03:21:13;;;;;;;12.57;2.60;;;;;;;;;;4948422;29;20399;-81
2023/08/23 03:23:40;;;;;;;8.73;3.13;;;;;;;;;;4936435;29;20055;-81
2023/08/23 03:26:07;;;;;;;8.55;2.95;;;;;;;;;;4936929;29;20035;-81
2023/08/23 03:28:34;;;;;;;6.28;2.67;;;;;;;;;;4954091;29;20040;-82
2023/08/23 03:31:05;;;;;;;8.02;3.45;;;;;;;;;;4922057;29;20044;-82
2023/08/23 03:33:31;;;;;;;10.13;2.88;;;;;;;;;;4937405;29;20039;-81
2023/08/23 03:35:58;;;;;;;15.23;2.92;;;;;;;;;;4952985;29;20034;-81
2023/08/23 03:38:24;;;;;;;11.00;3.33;;;;;;;;;;4936510;29;20067;-81
2023/08/23 03:40:51;;;;;;;13.05;3.30;;;;;;;;;;4936803;29;20040;-81
2023/08/23 03:43:18;;;;;;;8.35;2.85;;;;;;;;;;4937775;29;20039;-82
2023/08/23 03:45:48;;;;;;;11.23;2.88;;;;;;;;;;4955496;29;20095;-81
2023/08/23 03:48:14;;;;;;;7.70;2.60;;;;;;;;;;4968282;29;20071;-81
2023/08/23 03:50:41;;;;;;;10.05;2.38;;;;;;;;;;4952366;29;20071;-81
2023/08/23 03:53:07;;;;;;;10.60;2.70;;;;;;;;;;4935766;29;20039;-81
2023/08/23 03:55:36;;;;;;;6.20;2.70;;;;;;;;;;4950370;29;20023;-82
2023/08/23 03:58:07;;;;;;;11.20;3.65;;;;;;;;;;4963527;29;20566;-81
2023/08/23 04:00:33;;;;;;;12.63;4.22;;;;;;;;;;4947515;29;20032;-82
2023/08/23 04:03:00;;;;;;;7.75;2.95;;;;;;;;;;4954117;29;20036;-81
2023/08/23 04:05:26;;;;;;;9.10;2.90;;;;;;;;;;4967763;29;20104;-81
2023/08/23 04:07:51;;;;;;;11.70;2.78;;;;;;;;;;4952009;29;20065;-82
2023/08/23 04:10:17;;;;;;;5.43;2.70;;;;;;;;;;4938859;29;20043;-81
2023/08/23 04:12:45;;;;;;;14.88;3.45;;;;;;;;;;4943733;29;20034;-82
2023/08/23 04:15:11;;;;;;;7.38;3.28;;;;;;;;;;4944595;29;20039;-81
2023/08/23 04:17:37;;;;;;;18.38;3.17;;;;;;;;;;4941977;29;20095;-81
2023/08/23 04:20:06;;;;;;;7.07;3.28;;;;;;;;;;4954920;29;20031;-82
2023/08/23 04:22:32;;;;;;;10.70;3.28;;;;;;;;;;4952853;29;20428;-82
2023/08/23 04:24:58;;;;;;;8.55;3.30;;;;;;;;;;4932668;29;20047;-82
2023/08/23 04:27:27;;;;;;;8.73;2.97;;;;;;;;;;4928210;29;20036;-82
2023/08/23 04:29:53;;;;;;;9.93;3.47;;;;;;;;;;4902310;29;20032;-82
2023/08/23 04:32:19;;;;;;;10.63;3.45;;;;;;;;;;4955407;29;20131;-81
2023/08/23 04:34:45;;;;;;;10.25;3.10;;;;;;;;;;4940678;29;20028;-82
2023/08/23 04:37:11;;;;;;;9.07;3.47;;;;;;;;;;4943827;29;20034;-81
2023/08/23 04:39:37;;;;;;;10.05;3.83;;;;;;;;;;4958415;29;20034;-81
2023/08/23 04:42:05;;;;;;;9.48;3.40;;;;;;;;;;4924210;29;20043;-82
2023/08/23 04:44:31;;;;;;;6.93;3.30;;;;;;;;;;4951281;29;20036;-81
2023/08/23 04:47:01;;;;;;;6.60;3.20;;;;;;;;;;4919576;29;20039;-82
2023/08/23 04:49:29;;;;;;;12.90;3.10;;;;;;;;;;4951839;29;20043;-82
2023/08/23 04:51:55;;;;;;;12.40;3.25;;;;;;;;;;4937279;29;20103;-82
2023/08/23 04:54:21;;;;;;;6.63;3.33;;;;;;;;;;4938641;29;20042;-82
2023/08/23 04:56:47;;;;;;;9.05;3.03;;;;;;;;;;4927027;29;20046;-82
2023/08/23 04:59:13;;;;;;;11.60;3.00;;;;;;;;;;4923814;29;20040;-81
2023/08/23 05:01:39;;;;;;;10.18;2.90;;;;;;;;;;4925314;29;20038;-81
2023/08/23 05:04:07;;;;;;;12.90;3.00;;;;;;;;;;4956099;29;20134;-81
2023/08/23 05:06:35;;;;;;;8.38;2.78;;;;;;;;;;4957567;29;20036;-82
2023/08/23 05:09:04;;;;;;;8.52;3.22;;;;;;;;;;4959527;28;20044;-81
2023/08/23 05:11:30;;;;;;;9.27;3.25;;;;;;;;;;4957716;29;20067;-83
2023/08/23 05:13:57;;;;;;;8.67;3.00;;;;;;;;;;4954212;29;20042;-80
2023/08/23 05:16:23;;;;;;;6.07;2.55;;;;;;;;;;4956672;29;20015;-81
2023/08/23 05:18:50;;;;;;;7.65;3.05;;;;;;;;;;4958836;28;20074;-82
2023/08/23 05:21:16;;;;;;;10.50;4.22;;;;;;;;;;4974162;28;20032;-81
2023/08/23 05:23:45;;;;;;;12.07;3.90;;;;;;;;;;4958228;29;20399;-81
2023/08/23 05:26:11;;;;;;;6.32;2.53;;;;;;;;;;4957124;29;20054;-81
2023/08/23 05:28:37;;;;;;;5.95;2.47;;;;;;;;;;4956944;29;20034;-81
2023/08/23 05:31:04;;;;;;;7.07;2.80;;;;;;;;;;4925108;29;20051;-83
2023/08/23 05:33:29;;;;;;;9.63;3.25;;;;;;;;;;4939838;29;20093;-81
2023/08/23 05:35:55;;;;;;;7.85;2.83;;;;;;;;;;4909323;29;20040;-81
2023/08/23 05:38:23;;;;;;;9.25;3.10;;;;;;;;;;4924576;29;20100;-82
2023/08/23 05:40:50;;;;;;;18.65;5.97;;;;;;;;;;4955732;29;20047;-81
2023/08/23 05:43:17;;;;;;;12.02;3.00;;;;;;;;;;4940252;29;20025;-80
2023/08/23 05:45:43;;;;;;;10.52;3.25;;;;;;;;;;4922662;29;20040;-81
2023/08/23 05:48:10;;;;;;;11.27;3.88;;;;;;;;;;4938531;29;20055;-81
2023/08/23 05:50:38;;;;;;;5.03;2.95;;;;;;;;;;4943531;29;20075;-80
2023/08/23 05:53:09;;;;;;;10.40;2.70;;;;;;;;;;4960720;28;20046;-80
2023/08/23 05:55:36;;;;;;;7.70;2.53;;;;;;;;;;4961056;28;20048;-80
2023/08/23 05:58:02;;;;;;;11.50;3.55;;;;;;;;;;4945094;29;20116;-81
2023/08/23 06:00:28;;;;;;;9.30;3.17;;;;;;;;;;4924292;29;20036;-82
2023/08/23 06:02:54;;;;;;;11.82;3.38;;;;;;;;;;4933209;29;20419;-82
2023/08/23 06:05:19;;;;;;;13.07;3.35;;;;;;;;;;4944588;29;20127;-80
2023/08/23 06:07:45;;;;;;;9.10;2.63;;;;;;;;;;4930043;29;20060;-81
2023/08/23 06:10:11;;;;;;;9.48;2.92;;;;;;;;;;4930966;29;20038;-81
2023/08/23 06:12:37;;;;;;;7.72;3.03;;;;;;;;;;4932510;29;20099;-81
2023/08/23 06:15:04;;;;;;;8.68;2.92;;;;;;;;;;4933849;29;20036;-81
2023/08/23 06:17:30;;;;;;;7.70;3.00;;;;;;;;;;4935477;29;20031;-82
2023/08/23 06:19:56;;;;;;;10.07;2.78;;;;;;;;;;4932720;29;20099;-82
2023/08/23 06:22:22;;;;;;;13.60;2.95;;;;;;;;;;4931605;29;20057;-82
2023/08/23 06:24:47;;;;;;;9.07;2.97;;;;;;;;;;4949311;29;20031;-82
2023/08/23 06:27:13;;;;;;;7.80;3.47;;;;;;;;;;4951994;29;20059;-82
2023/08/23 06:29:39;;;;;;;12.00;2.80;;;;;;;;;;4935969;29;20111;-82
2023/08/23 06:32:06;;;;;;;6.72;2.75;;;;;;;;;;4936875;29;20152;-82
2023/08/23 06:34:32;;;;;;;7.82;2.65;;;;;;;;;;4936005;29;20027;-82
2023/08/23 06:36:57;;;;;;;13.52;2.50;;;;;;;;;;4937945;29;20038;-82
2023/08/23 06:39:23;;;;;;;7.00;1.98;;;;;;;;;;4952187;29;20028;-82
2023/08/23 06:41:52;;;;;;;7.20;2.17;;;;;;;;;;4954016;29;20028;-81
2023/08/23 06:44:19;;;;;;;5.75;2.33;;;;;;;;;;4965182;28;20040;-81
2023/08/23 06:46:46;;;;;;;6.35;2.17;;;;;;;;;;4943938;29;20047;-80
2023/08/23 06:49:12;;;;;;;8.52;2.78;;;;;;;;;;4962800;29;20151;-81
2023/08/23 06:51:38;;;;;;;8.40;2.40;;;;;;;;;;4953954;29;20046;-80
2023/08/23 06:54:04;;;;;;;9.23;2.53;;;;;;;;;;4967198;29;20072;-80
2023/08/23 06:56:30;;;;;;;6.75;2.33;;;;;;;;;;4960705;29;20040;-80
2023/08/23 06:58:55;;;;;;;8.38;2.75;;;;;;;;;;4946365;29;20028;-80
2023/08/23 07:01:21;;;;;;;6.68;3.58;;;;;;;;;;4945246;29;20082;-80
2023/08/23 07:03:47;;;;;;;6.25;2.65;;;;;;;;;;4942781;29;20028;-80
2023/08/23 07:06:13;;;;;;;9.38;3.08;;;;;;;;;;4950592;29;20055;-80
2023/08/23 07:08:42;;;;;;;11.32;3.00;;;;;;;;;;4932479;29;20028;-79
2023/08/23 07:11:17;;;;;;;8.38;2.78;;;;;;;;;;4945201;29;20051;-80
2023/08/23 07:13:50;;;;;;;7.47;2.25;;;;;;;;;;4942718;29;20098;-80
2023/08/23 07:16:19;;;;;;;8.07;2.88;;;;;;;;;;4939927;29;20099;-80
2023/08/23 07:18:45;;;;;;;10.10;3.22;;;;;;;;;;4934036;29;20027;-80
2023/08/23 07:21:10;;;;;;;7.75;3.38;;;;;;;;;;4921243;29;20043;-81
2023/08/23 07:23:36;;;;;;;9.13;3.30;;;;;;;;;;4920930;29;20511;-79
2023/08/23 07:26:03;;;;;;;9.88;3.42;;;;;;;;;;4937233;29;20036;-79
2023/08/23 07:28:28;;;;;;;15.02;3.78;;;;;;;;;;4938842;29;20478;-80
2023/08/23 07:30:57;;;;;;;9.43;3.10;;;;;;;;;;4937876;29;20507;-80
2023/08/23 07:33:23;;;;;;;8.35;3.20;;;;;;;;;;4942491;29;20095;-77
2023/08/23 07:35:59;;;;;;;9.77;3.35;;;;;;;;;;4937846;29;20051;-79
2023/08/23 07:38:24;;;;;;;12.00;3.90;;;;;;;;;;4945229;29;20036;-79
2023/08/23 07:40:51;;;;;;;13.48;3.10;;;;;;;;;;4907969;29;20035;-79
2023/08/23 07:43:16;;;;;;;8.15;3.00;;;;;;;;;;4898860;29;20131;-80
2023/08/23 07:45:42;;;;;;;8.95;3.45;;;;;;;;;;4928939;29;20118;-80
2023/08/23 07:48:07;;;;;;;11.50;3.17;;;;;;;;;;4943469;29;20071;-81
2023/08/23 07:50:34;;;;;;;7.50;2.83;;;;;;;;;;4942512;29;20047;-82
2023/08/23 07:53:02;;;;;;;8.00;3.10;;;;;;;;;;4943936;29;20510;-82
2023/08/23 07:55:28;;;;;;;9.70;3.47;;;;;;;;;;4931674;29;20074;-83
2023/08/23 07:57:54;;;;;;;7.18;3.03;;;;;;;;;;4946586;29;20055;-83
2023/08/23 08:00:20;;;;;;;11.60;3.65;;;;;;;;;;4929481;29;20040;-83
2023/08/23 08:02:46;;;;;;;11.88;2.97;;;;;;;;;;4946804;29;20043;-83
2023/08/23 08:05:12;;;;;;;13.32;2.58;;;;;;;;;;4944874;29;20046;-83
2023/08/23 08:07:38;;;;;;;6.25;3.08;;;;;;;;;;4944702;29;20038;-83
2023/08/23 08:10:03;;;;;;;5.82;2.40;;;;;;;;;;4954313;28;20075;-83
2023/08/23 08:12:29;;;;;;;10.45;2.55;;;;;;;;;;4911765;29;20031;-82
2023/08/23 08:14:55;;;;;;;5.60;2.60;;;;;;;;;;4952541;29;20040;-83
2023/08/23 08:17:20;;;;;;;8.00;3.13;;;;;;;;;;4955020;29;20086;-82
2023/08/23 08:19:46;;;;;;;9.23;2.92;;;;;;;;;;4952175;29;20036;-82
2023/08/23 08:22:11;;;;;;;12.50;3.00;;;;;;;;;;4950923;29;20028;-82
2023/08/23 08:24:37;;;;;;;12.18;3.70;;;;;;;;;;4934587;29;20032;-82
2023/08/23 08:27:04;;;;;;;9.85;3.10;;;;;;;;;;4947272;29;20039;-82
2023/08/23 08:29:29;;;;;;;6.28;3.03;;;;;;;;;;4945354;29;20035;-82
2023/08/23 08:31:55;;;;;;;7.57;2.85;;;;;;;;;;4915361;29;20040;-83
2023/08/23 08:34:21;;;;;;;8.40;2.20;;;;;;;;;;4928006;29;20050;-84
2023/08/23 08:36:46;;;;;;;9.70;2.63;;;;;;;;;;4908071;29;20027;-82
2023/08/23 08:39:12;;;;;;;7.55;2.22;;;;;;;;;;4916348;29;20051;-83
2023/08/23 08:41:41;;;;;;;7.90;2.78;;;;;;;;;;4923145;29;20036;-83
2023/08/23 08:44:11;;;;;;;6.55;2.08;;;;;;;;;;4915551;29;20147;-81
2023/08/23 08:46:37;;;;;;;7.90;2.58;;;;;;;;;;4948048;29;20035;-80
2023/08/23 08:49:02;;;;;;;5.82;2.50;;;;;;;;;;4950577;29;20111;-81
2023/08/23 08:51:29;;;;;;;5.93;2.42;;;;;;;;;;4953542;29;20038;-81
2023/08/23 08:53:56;;;;;;;10.85;3.78;;;;;;;;;;4935281;29;20084;-81
2023/08/23 08:56:21;;;;;;;8.38;2.28;;;;;;;;;;4942359;29;20056;-81
2023/08/23 08:58:47;;;;;;;9.95;2.40;;;;;;;;;;4942538;29;20091;-81
2023/08/23 09:01:14;;;;;;;5.63;2.00;;;;;;;;;;4975909;28;20057;-81
2023/08/23 09:03:40;;;;;;;7.32;2.55;;;;;;;;;;4959592;29;20024;-82
2023/08/23 09:06:07;;;;;;;5.60;2.00;;;;;;;;;;4976018;29;20024;-81
2023/08/23 09:08:33;;;;;;;8.38;2.58;;;;;;;;;;4941380;28;20032;-81
2023/08/23 09:11:02;;;;;;;10.52;2.80;;;;;;;;;;4975511;28;20016;-81
2023/08/23 09:13:27;;;;;;;8.55;3.55;;;;;;;;;;4946505;29;20059;-80
2023/08/23 09:15:53;;;;;;;5.00;2.67;;;;;;;;;;4916343;29;20044;-80
2023/08/23 09:18:19;;;;;;;8.75;2.30;;;;;;;;;;4931844;29;20068;-78
2023/08/23 09:20:44;;;;;;;6.93;3.47;;;;;;;;;;4942568;29;20394;-78
2023/08/23 09:23:11;;;;;;;537.30;374.08;;;;;;;;;;4940473;29;20146;-84
2023/08/23 09:25:38;;;;;;;19.97;11.37;;;;;;;;;;4954506;29;20036;-77
2023/08/23 09:28:03;;;;;;;7.85;4.60;;;;;;;;;;4921520;29;20282;-77
2023/08/23 09:30:34;;;;;;;9.55;3.42;;;;;;;;;;4952445;29;20130;-78
2023/08/23 09:33:00;;;;;;;9.18;4.97;;;;;;;;;;4918025;29;20032;-78
2023/08/23 09:35:25;;;;;;;5.95;2.30;;;;;;;;;;4921549;29;20034;-78
2023/08/23 09:37:51;;;;;;;8.90;3.70;;;;;;;;;;4921711;29;20028;-77
2023/08/23 09:40:24;;;;;;;11.00;3.63;;;;;;;;;;4936709;29;20042;-78
2023/08/23 09:42:50;;;;;;;12.15;2.88;;;;;;;;;;4905692;29;20043;-78
2023/08/23 09:45:20;;;;;;;8.75;3.20;;;;;;;;;;4937608;29;20032;-77
2023/08/23 09:47:51;;;;;;;9.05;3.13;;;;;;;;;;4952325;29;20102;-77
2023/08/23 09:50:17;;;;;;;5.65;2.15;;;;;;;;;;4935540;29;20088;-77
2023/08/23 09:52:44;;;;;;;9.15;3.47;;;;;;;;;;4935276;29;20028;-77
2023/08/23 09:55:13;;;;;;;8.13;2.50;;;;;;;;;;4931882;29;20091;-77
2023/08/23 09:57:40;;;;;;;8.05;2.65;;;;;;;;;;4936666;29;20114;-77
2023/08/23 10:00:06;;;;;;;4.10;1.90;;;;;;;;;;4919766;29;20034;-78
2023/08/23 10:02:32;;;;;;;9.45;2.22;;;;;;;;;;4936142;29;20059;-77
2023/08/23 10:05:00;;;;;;;7.25;2.13;;;;;;;;;;4956510;28;20059;-77
2023/08/23 10:07:26;;;;;;;6.13;2.40;;;;;;;;;;4927057;29;20456;-77
2023/08/23 10:09:52;;;;;;;26.02;9.55;;;;;;;;;;4940097;29;20035;-85
2023/08/23 10:12:18;;;;;;;34.97;23.63;;;;;;;;;;4957619;28;20483;-78
2023/08/23 10:14:46;;;;;;;12.15;6.18;;;;;;;;;;4931782;29;20027;-79
2023/08/23 10:17:14;;;;;;;11.88;6.72;;;;;;;;;;4931141;29;20032;-78
2023/08/23 10:19:40;;;;;;;11.97;4.73;;;;;;;;;;4929607;29;20116;-79
2023/08/23 10:22:06;;;;;;;8.90;4.70;;;;;;;;;;4940755;29;20063;-79
2023/08/23 10:24:32;;;;;;;8.55;4.47;;;;;;;;;;4937030;29;20028;-78
2023/08/23 10:27:04;;;;;;;7.28;2.95;;;;;;;;;;4938550;29;20031;-78
2023/08/23 10:29:30;;;;;;;5.82;2.42;;;;;;;;;;4954068;29;20028;-79
2023/08/23 10:31:56;;;;;;;9.48;3.50;;;;;;;;;;4936637;29;20046;-78
2023/08/23 10:34:25;;;;;;;8.20;3.00;;;;;;;;;;4918903;29;20035;-78
2023/08/23 10:36:52;;;;;;;6.47;2.45;;;;;;;;;;4926976;29;20403;-78
2023/08/23 10:39:20;;;;;;;7.13;2.20;;;;;;;;;;4940407;29;20032;-78
2023/08/23 10:41:45;;;;;;;7.13;2.20;;;;;;;;;;4937074;29;20392;-79
2023/08/23 10:44:15;;;;;;;10.40;2.40;;;;;;;;;;4927592;29;20036;-79
2023/08/23 10:46:45;;;;;;;8.55;2.00;;;;;;;;;;4919017;29;20040;-77
2023/08/23 10:49:12;;;;;;;6.00;1.90;;;;;;;;;;4935863;29;20035;-77
2023/08/23 10:51:41;;;;;;;7.60;2.25;;;;;;;;;;4931703;29;20115;-78
2023/08/23 10:54:10;;;;;;;7.60;2.17;;;;;;;;;;4930366;29;20039;-78
2023/08/23 10:56:36;;;;;;;9.90;2.30;;;;;;;;;;4933511;29;20047;-78
2023/08/23 10:59:02;;;;;;;45.95;29.00;;;;;;;;;;4926550;29;20038;-78
2023/08/23 11:01:28;;;;;;;8.30;3.30;;;;;;;;;;4935129;29;20152;-78
2023/08/23 11:03:54;;;;;;;608.70;406.23;;;;;;;;;;4936073;29;20091;-78
2023/08/23 11:06:20;;;;;;;14.68;8.35;;;;;;;;;;4951184;29;20229;-78
2023/08/23 11:08:45;;;;;;;5.15;1.92;;;;;;;;;;4934159;29;20154;-78
2023/08/23 11:11:11;;;;;;;6.00;2.45;;;;;;;;;;4938561;29;20091;-79
2023/08/23 11:13:37;;;;;;;11.90;2.10;;;;;;;;;;4936609;29;20055;-79
2023/08/23 11:16:03;;;;;;;11.02;2.17;;;;;;;;;;4937587;29;20067;-78
2023/08/23 11:18:29;;;;;;;8.10;2.30;;;;;;;;;;4937149;29;20365;-78
2023/08/23 11:20:54;;;;;;;5.97;1.92;;;;;;;;;;4920603;29;20047;-79
2023/08/23 11:23:20;;;;;;;8.45;2.35;;;;;;;;;;4935637;29;20027;-78
2023/08/23 11:25:45;;;;;;;6.47;2.15;;;;;;;;;;4952366;29;20047;-79
2023/08/23 11:28:15;;;;;;;8.77;2.00;;;;;;;;;;4937485;29;20566;-79
2023/08/23 11:30:42;;;;;;;4.28;1.73;;;;;;;;;;4942366;29;20067;-79
2023/08/23 11:33:08;;;;;;;5.63;1.95;;;;;;;;;;4923211;29;20483;-79
2023/08/23 11:35:34;;;;;;;5.25;1.60;;;;;;;;;;4956033;29;20106;-79
2023/08/23 11:38:00;;;;;;;5.82;1.60;;;;;;;;;;4941956;29;20028;-79
2023/08/23 11:40:25;;;;;;;7.60;1.80;;;;;;;;;;4941708;29;20039;-80
2023/08/23 11:42:57;;;;;;;7.68;2.00;;;;;;;;;;4943509;29;20114;-81
2023/08/23 11:45:23;;;;;;;4.65;1.35;;;;;;;;;;4943450;29;20095;-80
2023/08/23 11:47:55;;;;;;;8.30;1.92;;;;;;;;;;4942750;29;20038;-80
2023/08/23 11:50:21;;;;;;;7.97;1.90;;;;;;;;;;4958996;29;20050;-80
2023/08/23 11:52:47;;;;;;;5.15;1.55;;;;;;;;;;4940193;29;20036;-79
2023/08/23 11:55:19;;;;;;;6.72;2.13;;;;;;;;;;4955115;29;20118;-79
2023/08/23 11:57:49;;;;;;;10.07;2.03;;;;;;;;;;4941359;29;20023;-79
2023/08/23 12:00:15;;;;;;;4.95;1.58;;;;;;;;;;4943733;29;20043;-80
2023/08/23 12:02:41;;;;;;;7.00;2.00;;;;;;;;;;4948954;29;20031;-81
2023/08/23 12:05:08;;;;;;;6.20;1.75;;;;;;;;;;4965968;29;20040;-79
2023/08/23 12:07:33;;;;;;;9.95;1.50;;;;;;;;;;4972252;29;20044;-80
2023/08/23 12:09:59;;;;;;;4.28;1.73;;;;;;;;;;4945696;29;20031;-80
2023/08/23 12:12:24;;;;;;;4.55;1.30;;;;;;;;;;4958605;29;20060;-80
2023/08/23 12:17:32;;;;;;;6.20;1.50;;;;;;;;;;4949079;29;20052;-83
2023/08/23 12:19:58;;;;;;;8.85;1.67;;;;;;;;;;4941883;29;20056;-85
2023/08/23 12:22:23;;;;;;;5.25;1.50;;;;;;;;;;4952602;29;20035;-85
2023/08/23 12:24:49;;;;;;;8.77;1.63;;;;;;;;;;4948730;29;20496;-85
2023/08/23 12:27:16;;;;;;;5.72;1.52;;;;;;;;;;4947236;29;20036;-85
2023/08/23 12:29:41;;;;;;;13.38;2.50;;;;;;;;;;4918497;29;20055;-85
2023/08/23 12:32:07;;;;;;;5.50;1.65;;;;;;;;;;4941299;29;20127;-84
2023/08/23 12:34:33;;;;;;;5.18;1.70;;;;;;;;;;4937735;29;20028;-84
2023/08/23 12:36:59;;;;;;;7.63;2.00;;;;;;;;;;4944568;29;20114;-84
2023/08/23 12:39:26;;;;;;;4.72;1.33;;;;;;;;;;4971845;28;20070;-85
2023/08/23 12:41:52;;;;;;;5.50;1.38;;;;;;;;;;4923464;29;20143;-85
2023/08/23 12:44:18;;;;;;;5.53;1.70;;;;;;;;;;4944089;29;20490;-84
2023/08/23 12:46:45;;;;;;;4.28;1.60;;;;;;;;;;4941290;29;20054;-85
2023/08/23 12:49:14;;;;;;;7.35;1.95;;;;;;;;;;4961628;28;20024;-85
2023/08/23 12:51:43;;;;;;;3.10;1.10;;;;;;;;;;4921195;29;20091;-84
2023/08/23 12:54:09;;;;;;;4.93;1.58;;;;;;;;;;4948531;29;20032;-84
2023/08/23 12:56:35;;;;;;;4.30;1.33;;;;;;;;;;4943848;29;20062;-85
2023/08/23 12:59:00;;;;;;;5.03;1.08;;;;;;;;;;4948030;29;20067;-84
2023/08/23 13:01:26;;;;;;;6.53;1.50;;;;;;;;;;4967534;28;20483;-84
2023/08/23 13:03:51;;;;;;;6.72;1.35;;;;;;;;;;4944056;29;20035;-84
2023/08/23 13:06:17;;;;;;;8.32;1.35;;;;;;;;;;4940144;29;20064;-83
2023/08/23 13:08:43;;;;;;;4.82;1.40;;;;;;;;;;4925595;29;20087;-84
2023/08/23 13:11:08;;;;;;;6.03;1.38;;;;;;;;;;4970130;28;20039;-84
2023/08/23 13:13:38;;;;;;;7.50;1.90;;;;;;;;;;4947789;29;20035;-86
2023/08/23 13:16:04;;;;;;;5.18;1.20;;;;;;;;;;4944044;29;20031;-85
2023/08/23 13:18:30;;;;;;;7.47;1.85;;;;;;;;;;4956626;29;20404;-85
2023/08/23 13:20:55;;;;;;;5.50;1.52;;;;;;;;;;4942489;29;20036;-84
2023/08/23 13:23:21;;;;;;;3.50;1.20;;;;;;;;;;4944529;29;20036;-84
2023/08/23 13:25:46;;;;;;;6.57;1.42;;;;;;;;;;4927495;29;20042;-84
2023/08/23 13:28:12;;;;;;;8.70;1.70;;;;;;;;;;4959191;29;20106;-86
2023/08/23 13:30:37;;;;;;;6.80;1.55;;;;;;;;;;4944664;29;20042;-84
2023/08/23 13:33:03;;;;;;;7.28;1.52;;;;;;;;;;4943620;29;20094;-84
2023/08/23 13:35:28;;;;;;;3.65;1.00;;;;;;;;;;4925230;29;20387;-85
2023/08/23 13:37:54;;;;;;;4.25;1.40;;;;;;;;;;4943382;29;20399;-85
2023/08/23 13:40:19;;;;;;;3.47;1.15;;;;;;;;;;4943784;29;20036;-86
2023/08/23 13:42:49;;;;;;;8.23;1.70;;;;;;;;;;4925389;29;20071;-85
2023/08/23 13:45:14;;;;;;;3.22;1.20;;;;;;;;;;4941782;29;20039;-84
2023/08/23 13:47:40;;;;;;;4.15;1.40;;;;;;;;;;4936236;29;20047;-85
2023/08/23 13:50:10;;;;;;;7.15;1.40;;;;;;;;;;4933272;29;20036;-84
2023/08/23 13:52:35;;;;;;;3.15;1.23;;;;;;;;;;4940417;29;20548;-85
2023/08/23 13:55:01;;;;;;;5.18;1.52;;;;;;;;;;4925085;29;20119;-85
2023/08/23 13:57:28;;;;;;;3.83;1.27;;;;;;;;;;4956867;28;20099;-84
2023/08/23 13:59:53;;;;;;;6.03;1.58;;;;;;;;;;4930251;29;20510;-85
2023/08/23 14:02:18;;;;;;;3.05;1.13;;;;;;;;;;4926295;29;20035;-85
2023/08/23 14:04:44;;;;;;;6.63;1.45;;;;;;;;;;4942024;29;20522;-84
2023/08/23 14:07:09;;;;;;;9.90;2.22;;;;;;;;;;4927845;29;20046;-83
2023/08/23 14:09:35;;;;;;;7.00;1.50;;;;;;;;;;4959184;29;20130;-85
2023/08/23 14:12:00;;;;;;;2.47;1.05;;;;;;;;;;4924232;29;20130;-83
2023/08/23 14:14:26;;;;;;;3.45;1.20;;;;;;;;;;4942221;29;20047;-83
2023/08/23 14:16:53;;;;;;;7.70;1.63;;;;;;;;;;4973071;28;20041;-85
2023/08/23 14:19:19;;;;;;;8.95;1.90;;;;;;;;;;4956293;29;20058;-85
2023/08/23 14:21:45;;;;;;;4.07;1.60;;;;;;;;;;4942293;29;20094;-84
2023/08/23 14:24:11;;;;;;;5.40;1.50;;;;;;;;;;4944250;29;20035;-84
2023/08/23 14:26:36;;;;;;;3.83;1.30;;;;;;;;;;4947838;29;20064;-83
2023/08/23 14:29:02;;;;;;;5.32;1.35;;;;;;;;;;4943273;29;20035;-83
2023/08/23 14:31:28;;;;;;;6.93;1.67;;;;;;;;;;4940974;29;20066;-85
2023/08/23 14:33:55;;;;;;;7.22;1.10;;;;;;;;;;4954518;28;20024;-83
2023/08/23 14:36:22;;;;;;;6.00;1.30;;;;;;;;;;4943786;29;20039;-85
2023/08/23 14:38:48;;;;;;;3.97;1.33;;;;;;;;;;4957110;28;20080;-84
2023/08/23 14:41:13;;;;;;;3.60;1.35;;;;;;;;;;4958484;29;20027;-83